createdAt,value
2022-07-28T00:01:37.992Z,101076.97
2022-07-28T00:04:26.070Z,101066.38
2022-07-28T00:07:06.953Z,101072.66
2022-07-28T00:10:00.703Z,101064.59
2022-07-28T00:12:43.146Z,101065.66
2022-07-28T00:15:31.064Z,101068.56
2022-07-28T00:18:11.964Z,101068.75
2022-07-28T00:21:01.645Z,101060.06
2022-07-28T00:23:41.975Z,101057.47
2022-07-28T00:26:30.122Z,101064.00
2022-07-28T00:29:12.723Z,101054.31
2022-07-28T00:32:04.587Z,101048.03
2022-07-28T00:34:46.359Z,101052.38
2022-07-28T00:37:34.132Z,101052.22
2022-07-28T00:40:16.981Z,101049.63
2022-07-28T00:43:04.125Z,101052.19
2022-07-28T00:45:44.969Z,101050.31
2022-07-28T00:48:33.143Z,101042.34
2022-07-28T00:51:18.804Z,101043.16
2022-07-28T00:54:06.259Z,101047.56
2022-07-28T00:56:49.096Z,101052.06
2022-07-28T00:59:44.943Z,101055.59
2022-07-28T01:02:33.444Z,101052.13
2022-07-28T01:05:15.988Z,101044.22
2022-07-28T01:08:13.033Z,101034.81
2022-07-28T01:11:06.119Z,101032.50
2022-07-28T01:14:32.021Z,101033.47
2022-07-28T01:17:31.188Z,101014.81
2022-07-28T01:20:30.472Z,101023.72
2022-07-28T01:23:34.452Z,101024.84
2022-07-28T01:27:03.387Z,101018.59
2022-07-28T01:30:08.239Z,101016.00
2022-07-28T01:33:08.420Z,101013.50
2022-07-28T01:35:58.148Z,101008.00
2022-07-28T01:38:46.747Z,101011.50
2022-07-28T01:41:36.698Z,101000.13
2022-07-28T01:44:29.382Z,101002.91
2022-07-28T01:47:13.236Z,100998.47
2022-07-28T01:50:05.722Z,100993.97
2022-07-28T01:52:54.081Z,100991.41
2022-07-28T01:55:43.007Z,100993.13
2022-07-28T01:58:34.113Z,100991.41
2022-07-28T02:01:20.856Z,100984.34
2022-07-28T02:04:13.474Z,100987.94
2022-07-28T02:06:56.766Z,100992.03
2022-07-28T02:09:47.296Z,100979.13
2022-07-28T02:12:29.156Z,100971.19
2022-07-28T02:15:19.546Z,100973.84
2022-07-28T02:18:03.402Z,100970.31
2022-07-28T02:20:51.151Z,100969.53
2022-07-28T02:23:34.025Z,100968.69
2022-07-28T02:26:23.262Z,100968.72
2022-07-28T02:29:07.408Z,100975.03
2022-07-28T02:31:59.241Z,100978.59
2022-07-28T02:34:45.663Z,100974.91
2022-07-28T02:37:36.131Z,100975.81
2022-07-28T02:40:21.042Z,100975.13
2022-07-28T02:43:13.138Z,100970.81
2022-07-28T02:45:58.130Z,100965.66
2022-07-28T02:48:49.891Z,100963.78
2022-07-28T02:51:35.067Z,100967.53
2022-07-28T02:54:28.763Z,100957.97
2022-07-28T02:57:12.039Z,100951.81
2022-07-28T03:00:01.969Z,100951.84
2022-07-28T03:02:44.427Z,100942.16
2022-07-28T03:05:36.236Z,100935.25
2022-07-28T03:08:18.176Z,100936.16
2022-07-28T03:11:16.612Z,100935.31
2022-07-28T03:13:57.636Z,100938.84
2022-07-28T03:16:46.215Z,100935.41
2022-07-28T03:19:27.081Z,100943.25
2022-07-28T03:22:15.315Z,100945.09
2022-07-28T03:25:00.091Z,100946.88
2022-07-28T03:27:52.259Z,100937.13
2022-07-28T03:30:41.493Z,100935.25
2022-07-28T03:33:30.354Z,100946.63
2022-07-28T03:36:19.388Z,100953.63
2022-07-28T03:39:12.140Z,100950.16
2022-07-28T03:41:54.820Z,100945.59
2022-07-28T03:44:44.345Z,100948.31
2022-07-28T03:47:31.712Z,100939.59
2022-07-28T03:50:20.429Z,100942.22
2022-07-28T03:53:02.852Z,100936.16
2022-07-28T03:55:53.722Z,100937.97
2022-07-28T04:01:42.254Z,100935.47
2022-07-28T04:04:31.829Z,100937.16
2022-07-28T04:07:14.577Z,100937.19
2022-07-28T04:10:01.490Z,100939.50
2022-07-28T04:12:58.232Z,100941.25
2022-07-28T04:15:45.468Z,100941.53
2022-07-28T04:18:26.697Z,100940.50
2022-07-28T04:21:14.595Z,100948.63
2022-07-28T04:23:59.810Z,100941.53
2022-07-28T04:26:48.084Z,100949.56
2022-07-28T04:29:29.255Z,100939.63
2022-07-28T04:32:16.128Z,100934.47
2022-07-28T04:34:57.214Z,100935.28
2022-07-28T04:37:47.257Z,100941.41
2022-07-28T04:40:28.685Z,100932.81
2022-07-28T04:43:17.180Z,100934.25
2022-07-28T04:45:58.269Z,100941.59
2022-07-28T04:48:46.233Z,100937.25
2022-07-28T04:51:27.289Z,100934.03
2022-07-28T04:54:16.814Z,100947.34
2022-07-28T04:56:58.212Z,100940.31
2022-07-28T04:59:56.762Z,100946.16
2022-07-28T05:02:44.695Z,100955.16
2022-07-28T05:05:25.594Z,100957.06
2022-07-28T05:08:13.252Z,100951.53
2022-07-28T05:10:54.867Z,100956.91
2022-07-28T05:13:44.311Z,100959.19
2022-07-28T05:16:26.168Z,100951.44
2022-07-28T05:19:13.242Z,100959.00
2022-07-28T05:21:54.914Z,100959.91
2022-07-28T05:24:44.637Z,100961.22
2022-07-28T05:27:25.173Z,100959.00
2022-07-28T05:30:13.281Z,100961.09
2022-07-28T05:32:56.176Z,100963.88
2022-07-28T05:35:45.272Z,100963.72
2022-07-28T05:38:28.120Z,100962.84
2022-07-28T05:41:16.274Z,100956.66
2022-07-28T05:43:57.520Z,100966.56
2022-07-28T05:46:48.333Z,100963.94
2022-07-28T05:49:30.226Z,100970.00
2022-07-28T05:52:18.236Z,100960.28
2022-07-28T05:54:59.175Z,100965.25
2022-07-28T05:57:55.164Z,100963.41
2022-07-28T06:00:50.212Z,100963.06
2022-07-28T06:03:42.288Z,100969.06
2022-07-28T06:06:24.682Z,100975.97
2022-07-28T06:09:14.055Z,100968.44
2022-07-28T06:11:57.138Z,100965.47
2022-07-28T06:14:45.282Z,100971.75
2022-07-28T06:17:26.178Z,100969.97
2022-07-28T06:20:16.979Z,100975.13
2022-07-28T06:23:00.182Z,100977.47
2022-07-28T06:25:50.299Z,100974.34
2022-07-28T06:28:31.549Z,100978.25
2022-07-28T06:31:20.169Z,100977.13
2022-07-28T06:34:01.169Z,100972.06
2022-07-28T06:36:50.548Z,100971.69
2022-07-28T06:39:34.913Z,100972.31
2022-07-28T06:42:26.704Z,100966.09
2022-07-28T06:45:07.162Z,100972.09
2022-07-28T06:47:56.317Z,100975.59
2022-07-28T06:50:39.482Z,100978.06
2022-07-28T06:53:34.049Z,100984.03
2022-07-28T06:56:15.875Z,100975.19
2022-07-28T06:59:10.183Z,100988.44
2022-07-28T07:01:57.176Z,100985.69
2022-07-28T07:04:39.038Z,100989.25
2022-07-28T07:07:30.187Z,100981.75
2022-07-28T07:10:12.398Z,100985.06
2022-07-28T07:13:00.721Z,100987.84
2022-07-28T07:15:42.119Z,100989.09
2022-07-28T07:18:31.210Z,100982.09
2022-07-28T07:21:14.314Z,100988.97
2022-07-28T07:24:02.177Z,100984.09
2022-07-28T07:26:44.707Z,100990.09
2022-07-28T07:29:32.205Z,100986.44
2022-07-28T07:32:14.333Z,100984.53
2022-07-28T07:35:02.218Z,100994.31
2022-07-28T07:37:43.767Z,100994.44
2022-07-28T07:40:44.966Z,100998.47
2022-07-28T07:43:35.013Z,100999.84
2022-07-28T07:46:15.737Z,100993.03
2022-07-28T07:49:05.164Z,100989.78
2022-07-28T07:51:46.847Z,100984.44
2022-07-28T07:54:34.856Z,100989.19
2022-07-28T07:57:16.745Z,100983.00
2022-07-28T08:00:03.873Z,100977.41
2022-07-28T08:02:48.767Z,100975.25
2022-07-28T08:05:36.444Z,100975.50
2022-07-28T08:08:20.020Z,100977.50
2022-07-28T08:11:08.368Z,100981.59
2022-07-28T08:13:49.710Z,100977.75
2022-07-28T08:16:40.960Z,100983.16
2022-07-28T08:19:21.858Z,100979.13
2022-07-28T08:22:08.869Z,100984.66
2022-07-28T08:24:49.733Z,100981.22
2022-07-28T08:27:40.103Z,100987.00
2022-07-28T08:30:30.294Z,100974.78
2022-07-28T08:33:22.971Z,100971.31
2022-07-28T08:36:04.895Z,100971.81
2022-07-28T08:39:00.706Z,100974.84
2022-07-28T08:41:49.262Z,100968.63
2022-07-28T08:44:36.402Z,100968.19
2022-07-28T08:47:23.561Z,100971.53
2022-07-28T08:50:05.880Z,100972.28
2022-07-28T08:52:56.749Z,100964.56
2022-07-28T08:55:42.910Z,100955.84
2022-07-28T08:58:31.292Z,100961.88
2022-07-28T09:01:13.943Z,100955.97
2022-07-28T09:04:06.088Z,100950.34
2022-07-28T09:06:48.281Z,100950.84
2022-07-28T09:09:35.791Z,100948.91
2022-07-28T09:12:17.060Z,100948.75
2022-07-28T09:15:04.919Z,100944.09
2022-07-28T09:17:49.181Z,100952.38
2022-07-28T09:20:38.770Z,100949.56
2022-07-28T09:23:42.158Z,100946.84
2022-07-28T09:26:29.786Z,100943.34
2022-07-28T09:29:11.461Z,100950.19
2022-07-28T09:35:02.899Z,100940.22
2022-07-28T09:37:53.546Z,100946.25
2022-07-28T09:40:44.546Z,100940.16
2022-07-28T09:43:38.041Z,100950.25
2022-07-28T09:46:33.022Z,100943.59
2022-07-28T09:49:15.620Z,100945.84
2022-07-28T09:52:10.334Z,100941.59
2022-07-28T09:55:13.790Z,100944.91
2022-07-28T09:58:01.910Z,100938.31
2022-07-28T10:00:45.520Z,100929.34
2022-07-28T10:03:34.392Z,100939.53
2022-07-28T10:06:23.923Z,100934.09
2022-07-28T10:09:14.491Z,100934.63
2022-07-28T10:11:55.816Z,100942.75
2022-07-28T10:14:46.482Z,100935.25
2022-07-28T10:17:40.817Z,100940.59
2022-07-28T10:20:30.027Z,100935.63
2022-07-28T10:23:13.910Z,100934.28
2022-07-28T10:26:13.052Z,100933.59
2022-07-28T10:28:59.265Z,100932.84
2022-07-28T10:31:57.508Z,100941.03
2022-07-28T10:34:46.201Z,100938.63
2022-07-28T10:37:35.079Z,100936.22
2022-07-28T10:40:25.189Z,100933.53
2022-07-28T10:43:06.920Z,100931.56
2022-07-28T10:46:06.130Z,100923.50
2022-07-28T10:48:51.143Z,100929.63
2022-07-28T10:51:59.797Z,100931.06
2022-07-28T10:55:21.944Z,100932.69
2022-07-28T10:58:28.360Z,100931.50
2022-07-28T11:01:17.134Z,100932.53
2022-07-28T11:04:48.070Z,100932.22
2022-07-28T11:07:29.134Z,100929.59
2022-07-28T11:10:23.814Z,100928.34
2022-07-28T11:13:05.964Z,100930.47
2022-07-28T11:16:05.209Z,100926.03
2022-07-28T11:19:36.919Z,100926.81
2022-07-28T11:22:24.297Z,100927.91
2022-07-28T11:25:20.978Z,100924.97
2022-07-28T11:28:12.758Z,100930.00
2022-07-28T11:30:55.274Z,100928.84
2022-07-28T11:34:04.982Z,100923.00
2022-07-28T11:37:15.156Z,100926.88
2022-07-28T11:40:46.256Z,100929.13
2022-07-28T11:43:37.765Z,100929.41
2022-07-28T11:46:21.887Z,100918.75
2022-07-28T11:49:30.073Z,100929.03
2022-07-28T11:52:22.625Z,100920.25
2022-07-28T11:55:12.938Z,100915.34
2022-07-28T11:57:55.015Z,100913.03
2022-07-28T12:00:42.419Z,100912.31
2022-07-28T12:03:54.015Z,100904.13
2022-07-28T12:06:49.542Z,100904.16
2022-07-28T12:09:42.453Z,100904.50
2022-07-28T12:12:31.604Z,100893.50
2022-07-28T12:15:13.976Z,100892.03
2022-07-28T12:18:03.029Z,100895.09
2022-07-28T12:20:52.240Z,100896.75
2022-07-28T12:23:45.465Z,100899.72
2022-07-28T12:26:49.208Z,100896.03
2022-07-28T12:29:37.995Z,100883.03
2022-07-28T12:32:20.886Z,100884.56
2022-07-28T12:35:10.169Z,100884.78
2022-07-28T12:37:55.259Z,100891.25
2022-07-28T12:40:46.465Z,100885.97
2022-07-28T12:43:28.888Z,100879.16
2022-07-28T12:46:17.094Z,100884.88
2022-07-28T12:48:59.247Z,100884.56
2022-07-28T12:51:49.005Z,100883.09
2022-07-28T12:54:53.721Z,100884.81
2022-07-28T12:57:52.927Z,100882.94
2022-07-28T13:00:41.993Z,100878.97
2022-07-28T13:03:37.705Z,100867.13
2022-07-28T13:06:20.690Z,100870.44
2022-07-28T13:09:15.118Z,100868.50
2022-07-28T13:11:55.991Z,100877.13
2022-07-28T13:14:52.367Z,100870.25
2022-07-28T13:17:40.916Z,100876.66
2022-07-28T13:20:28.720Z,100869.97
2022-07-28T13:23:12.903Z,100872.72
2022-07-28T13:26:02.050Z,100878.78
2022-07-28T13:28:42.915Z,100870.91
2022-07-28T13:31:32.417Z,100870.13
2022-07-28T13:34:16.295Z,100878.31
2022-07-28T13:37:05.029Z,100872.63
2022-07-28T13:39:59.192Z,100865.16
2022-07-28T13:42:52.783Z,100872.75
2022-07-28T13:45:34.390Z,100872.41
2022-07-28T13:48:24.087Z,100872.00
2022-07-28T13:51:07.717Z,100865.72
2022-07-28T13:53:56.585Z,100870.28
2022-07-28T13:56:44.947Z,100871.00
2022-07-28T13:59:35.486Z,100871.63
2022-07-28T14:02:18.945Z,100866.00
2022-07-28T14:05:13.020Z,100861.94
2022-07-28T14:07:55.525Z,100867.34
2022-07-28T14:10:56.335Z,100860.03
2022-07-28T14:13:38.225Z,100859.28
2022-07-28T14:16:32.244Z,100861.38
2022-07-28T14:19:13.318Z,100859.56
2022-07-28T14:22:13.154Z,100866.13
2022-07-28T14:24:57.995Z,100853.00
2022-07-28T14:27:45.882Z,100851.13
2022-07-28T14:30:28.353Z,100855.53
2022-07-28T14:33:16.076Z,100850.53
2022-07-28T14:35:56.947Z,100851.47
2022-07-28T14:38:53.708Z,100853.00
2022-07-28T14:41:40.970Z,100842.66
2022-07-28T14:44:24.249Z,100849.56
2022-07-28T14:47:18.172Z,100851.41
2022-07-28T14:50:00.271Z,100855.25
2022-07-28T14:52:49.100Z,100851.00
2022-07-28T14:55:30.536Z,100841.38
2022-07-28T14:58:19.585Z,100846.25
2022-07-28T15:01:01.372Z,100847.25
2022-07-28T15:03:47.952Z,100844.63
2022-07-28T15:06:29.113Z,100862.13
2022-07-28T15:09:18.087Z,100847.72
2022-07-28T15:11:59.351Z,100851.88
2022-07-28T15:14:46.005Z,100846.94
2022-07-28T15:17:27.157Z,100854.28
2022-07-28T15:20:17.399Z,100852.09
2022-07-28T15:22:58.869Z,100858.13
2022-07-28T15:25:49.418Z,100857.78
2022-07-28T15:28:30.171Z,100856.81
2022-07-28T15:31:20.758Z,100860.56
2022-07-28T15:34:02.503Z,100860.69
2022-07-28T15:36:50.353Z,100869.78
2022-07-28T15:39:45.382Z,100865.94
2022-07-28T15:42:34.378Z,100873.31
2022-07-28T15:45:15.143Z,100862.47
2022-07-28T15:48:03.120Z,100863.47
2022-07-28T15:50:45.590Z,100867.09
2022-07-28T15:53:35.091Z,100879.34
2022-07-28T15:56:17.620Z,100881.66
2022-07-28T15:59:06.123Z,100877.22
2022-07-28T16:01:47.211Z,100877.31
2022-07-28T16:04:48.436Z,100884.50
2022-07-28T16:07:39.533Z,100875.22
2022-07-28T16:10:33.011Z,100881.06
2022-07-28T16:13:14.944Z,100876.56
2022-07-28T16:16:04.442Z,100874.94
2022-07-28T16:18:48.288Z,100875.31
2022-07-28T16:21:36.022Z,100876.56
2022-07-28T16:24:17.638Z,100871.28
2022-07-28T16:27:05.093Z,100872.16
2022-07-28T16:29:46.216Z,100880.25
2022-07-28T16:32:34.782Z,100881.25
2022-07-28T16:35:16.173Z,100879.72
2022-07-28T16:38:04.398Z,100873.69
2022-07-28T16:40:58.028Z,100875.63
2022-07-28T16:43:46.135Z,100878.28
2022-07-28T16:46:27.187Z,100889.25
2022-07-28T16:49:15.101Z,100875.94
2022-07-28T16:51:56.300Z,100873.16
2022-07-28T16:54:44.048Z,100881.22
2022-07-28T16:57:26.170Z,100881.00
2022-07-28T17:00:17.049Z,100893.72
2022-07-28T17:02:58.608Z,100886.53
2022-07-28T17:05:45.041Z,100885.72
2022-07-28T17:08:27.141Z,100883.91
2022-07-28T17:11:15.045Z,100893.72
2022-07-28T17:13:56.218Z,100889.91
2022-07-28T17:16:44.070Z,100899.59
2022-07-28T17:19:25.133Z,100886.72
2022-07-28T17:22:14.057Z,100887.69
2022-07-28T17:24:56.643Z,100890.78
2022-07-28T17:27:47.869Z,100883.75
2022-07-28T17:30:30.467Z,100896.06
2022-07-28T17:33:19.074Z,100896.69
2022-07-28T17:36:01.438Z,100899.03
2022-07-28T17:38:49.078Z,100902.16
2022-07-28T17:41:37.216Z,100907.00
2022-07-28T17:44:18.457Z,100906.91
2022-07-28T17:47:09.298Z,100897.66
2022-07-28T17:49:51.592Z,100902.13
2022-07-28T17:52:41.255Z,100901.44
2022-07-28T17:56:00.373Z,100905.09
2022-07-28T17:58:49.983Z,100904.53
2022-07-28T18:01:31.474Z,100915.50
2022-07-28T18:04:21.187Z,100909.88
2022-07-28T18:07:02.835Z,100908.78
2022-07-28T18:09:50.235Z,100924.47
2022-07-28T18:12:31.089Z,100914.94
2022-07-28T18:15:18.794Z,100919.13
2022-07-28T18:18:01.851Z,100926.72
2022-07-28T18:20:50.456Z,100927.28
2022-07-28T18:23:34.000Z,100935.81
2022-07-28T18:26:21.287Z,100935.81
2022-07-28T18:29:02.858Z,100936.94
2022-07-28T18:31:53.349Z,100934.41
2022-07-28T18:34:35.111Z,100935.81
2022-07-28T18:37:22.342Z,100943.84
2022-07-28T18:40:18.129Z,100946.03
2022-07-28T18:43:12.849Z,100943.72
2022-07-28T18:45:54.605Z,100942.19
2022-07-28T18:48:43.286Z,100955.91
2022-07-28T18:51:25.666Z,100952.09
2022-07-28T18:54:23.233Z,100957.69
2022-07-28T18:57:08.437Z,100953.22
2022-07-28T18:59:55.231Z,100951.50
2022-07-28T19:02:37.174Z,100954.22
2022-07-28T19:05:37.022Z,100957.63
2022-07-28T19:08:18.497Z,100965.41
2022-07-28T19:11:06.225Z,100975.56
2022-07-28T19:13:47.515Z,100975.44
2022-07-28T19:16:36.120Z,100972.03
2022-07-28T19:19:17.887Z,100977.31
2022-07-28T19:22:06.517Z,100976.72
2022-07-28T19:24:47.113Z,100982.63
2022-07-28T19:27:36.376Z,100981.88
2022-07-28T19:30:17.234Z,100986.81
2022-07-28T19:33:04.334Z,100986.28
2022-07-28T19:35:47.413Z,100985.88
2022-07-28T19:38:38.217Z,100990.88
2022-07-28T19:41:26.549Z,100984.94
2022-07-28T19:44:08.283Z,100986.28
2022-07-28T19:46:56.162Z,100995.66
2022-07-28T19:49:41.882Z,100997.00
2022-07-28T19:52:31.577Z,100989.06
2022-07-28T19:55:17.594Z,100999.59
2022-07-28T19:58:08.535Z,100997.50
2022-07-28T20:00:50.310Z,100993.22
2022-07-28T20:04:01.334Z,101004.34
2022-07-28T20:06:43.258Z,100993.53
2022-07-28T20:09:30.893Z,101004.22
2022-07-28T20:12:12.729Z,101006.88
2022-07-28T20:15:00.528Z,101012.44
2022-07-28T20:17:42.348Z,101015.31
2022-07-28T20:20:30.576Z,101021.97
2022-07-28T20:23:12.821Z,101028.97
2022-07-28T20:26:00.306Z,101018.81
2022-07-28T20:28:45.354Z,101026.56
2022-07-28T20:31:32.974Z,101035.91
2022-07-28T20:34:15.430Z,101035.72
2022-07-28T20:37:04.479Z,101036.19
2022-07-28T20:39:47.456Z,101038.81
2022-07-28T20:42:41.975Z,101040.22
2022-07-28T20:45:31.778Z,101040.78
2022-07-28T20:48:14.566Z,101039.66
2022-07-28T20:51:02.322Z,101046.75
2022-07-28T20:53:44.772Z,101046.69
2022-07-28T20:56:33.355Z,101047.03
2022-07-28T20:59:15.028Z,101039.28
2022-07-28T21:02:05.514Z,101044.72
2022-07-28T21:04:46.230Z,101047.22
2022-07-28T21:08:05.379Z,101043.38
2022-07-28T21:10:43.420Z,101046.63
2022-07-28T21:13:30.311Z,101048.41
2022-07-28T21:16:11.699Z,101044.13
2022-07-28T21:19:02.181Z,101049.00
2022-07-28T21:21:43.178Z,101047.44
2022-07-28T21:24:31.292Z,101048.19
2022-07-28T21:27:13.089Z,101052.41
2022-07-28T21:30:03.563Z,101047.09
2022-07-28T21:32:44.595Z,101043.22
2022-07-28T21:35:32.293Z,101039.16
2022-07-28T21:38:13.214Z,101039.59
2022-07-28T21:41:08.201Z,101050.09
2022-07-28T21:44:04.083Z,101046.81
2022-07-28T21:46:45.860Z,101041.88
2022-07-28T21:49:37.591Z,101040.75
2022-07-28T21:52:18.743Z,101042.53
2022-07-28T21:55:07.216Z,101041.00
2022-07-28T21:57:49.558Z,101043.13
2022-07-28T22:00:42.258Z,101039.53
2022-07-28T22:03:24.652Z,101035.09
2022-07-28T22:06:11.226Z,101042.19
2022-07-28T22:08:56.489Z,101036.13
2022-07-28T22:11:45.311Z,101050.50
2022-07-28T22:14:32.289Z,101042.38
2022-07-28T22:17:21.031Z,101053.38
2022-07-28T22:20:02.319Z,101057.34
2022-07-28T22:22:49.622Z,101050.97
2022-07-28T22:25:32.129Z,101045.94
2022-07-28T22:28:19.247Z,101041.16
2022-07-28T22:31:13.501Z,101050.72
2022-07-28T22:34:01.205Z,101045.41
2022-07-28T22:36:42.869Z,101051.34
2022-07-28T22:39:31.814Z,101053.34
2022-07-28T22:42:18.522Z,101063.63
2022-07-28T22:48:10.887Z,101066.03
2022-07-28T22:50:53.250Z,101067.88
2022-07-28T22:53:40.358Z,101066.88
2022-07-28T22:56:22.277Z,101059.63
2022-07-28T22:59:10.140Z,101064.84
2022-07-28T23:01:53.315Z,101065.81
2022-07-28T23:04:40.414Z,101065.16
2022-07-28T23:07:50.626Z,101059.78
2022-07-28T23:10:31.148Z,101055.28
2022-07-28T23:13:12.619Z,101051.94
2022-07-28T23:16:01.375Z,101056.00
2022-07-28T23:18:47.391Z,101065.91
2022-07-28T23:21:36.717Z,101068.88
2022-07-28T23:24:19.163Z,101063.56
2022-07-28T23:27:09.088Z,101062.28
2022-07-28T23:29:52.467Z,101060.72
2022-07-28T23:32:39.965Z,101058.53
2022-07-28T23:35:22.593Z,101054.03
2022-07-28T23:38:10.383Z,101055.09
2022-07-28T23:41:04.318Z,101048.88
2022-07-28T23:43:53.555Z,101060.44
2022-07-28T23:46:35.112Z,101054.31
2022-07-28T23:49:22.600Z,101055.03
2022-07-28T23:52:03.256Z,101050.97
2022-07-28T23:54:52.910Z,101048.19
2022-07-28T23:57:33.291Z,101054.91
